UNTT/TOF METAR and TAF weather

Enter ICAO airport designator
Station Type Date Time Source
UNTT METAR 2019/10/10 11:00 UTC NOAA

UNTT 101100Z 08006MPS CAVOK 06/M10 Q1026 R21/090060 NOSIG RMK QFE754


Station Type Date Time Source
UNTT Decoded METAR 2019/10/10 11:00 UTC NOAA

Station name not available
Oct 10, 2019 - 07:00 AM EDT / 2019.10.10 1100 UTC
Wind: from the E (080 degrees) at 13 MPH (12 KT):0
Visibility: greater than 7 mile(s):0
Temperature: 42 F (6 C)
Dew Point: 14 F (-10 C)
Relative Humidity: 30%
Pressure (altimeter): 30.30 in. Hg (1026 hPa)
ob: UNTT 101100Z 08006MPS CAVOK 06/M10 Q1026 R21/090060 NOSIG RMK QFE754
cycle: 11

Station Type Date Time Source
UNTT TAF UTC NOAA

Error!

Example: see airport list